createdAt,value
2022-11-06T00:00:00.000Z,7.18
2022-11-06T00:15:00.000Z,7.84
2022-11-06T00:30:00.000Z,7.56
2022-11-06T00:45:00.000Z,9.29
2022-11-06T01:00:00.000Z,8.95
2022-11-06T01:15:00.000Z,9.11
2022-11-06T01:30:00.000Z,9.71
2022-11-06T01:45:00.000Z,9.73
2022-11-06T02:00:00.000Z,10.64
2022-11-06T02:15:00.000Z,11.52
2022-11-06T02:45:00.000Z,10
2022-11-06T02:45:00.000Z,10.4
2022-11-06T03:00:00.000Z,10.72
2022-11-06T03:15:00.000Z,9.12
2022-11-06T03:45:00.000Z,7.33
2022-11-06T03:45:00.000Z,8.13
2022-11-06T04:00:00.000Z,7.13
2022-11-06T04:15:00.000Z,9.06
2022-11-06T04:30:00.000Z,8.65
2022-11-06T04:45:00.000Z,8.46
2022-11-06T05:00:00.000Z,7.53
2022-11-06T05:15:00.000Z,6.91
2022-11-06T05:30:00.000Z,7.75
2022-11-06T05:45:00.000Z,7.65
2022-11-06T06:00:00.000Z,7.38
2022-11-06T06:15:00.000Z,7.75
2022-11-06T06:30:00.000Z,9.8
2022-11-06T06:45:00.000Z,9.18
2022-11-06T07:00:00.000Z,7.66
2022-11-06T07:15:00.000Z,9.73
2022-11-06T07:30:00.000Z,8.28
2022-11-06T07:45:00.000Z,6.44
2022-11-06T08:00:00.000Z,5.35
2022-11-06T08:15:00.000Z,6.2
2022-11-06T08:30:00.000Z,6.74
2022-11-06T08:45:00.000Z,6.41
2022-11-06T09:00:00.000Z,4.19
2022-11-06T09:15:00.000Z,3.67
2022-11-06T09:30:00.000Z,4.01
2022-11-06T09:45:00.000Z,3.32
2022-11-06T10:00:00.000Z,1.27
2022-11-06T10:30:00.000Z,3
2022-11-06T10:30:00.000Z,1.38
2022-11-06T10:45:00.000Z,1.52
2022-11-06T11:00:00.000Z,1.46
2022-11-06T11:15:00.000Z,2.14
2022-11-06T11:30:00.000Z,1.26
2022-11-06T11:45:00.000Z,1.49
2022-11-06T12:00:00.000Z,1.35
2022-11-06T12:15:00.000Z,1.59
2022-11-06T12:30:00.000Z,1.52
2022-11-06T12:45:00.000Z,1.41
2022-11-06T13:00:00.000Z,2.34
2022-11-06T13:15:00.000Z,13.11
2022-11-06T13:30:00.000Z,19.21
2022-11-06T13:45:00.000Z,19.89
2022-11-06T14:00:00.000Z,21.46
2022-11-06T14:15:00.000Z,23.45
2022-11-06T14:30:00.000Z,25.66
2022-11-06T14:45:00.000Z,26.73
2022-11-06T15:00:00.000Z,27.36
2022-11-06T15:15:00.000Z,28.18
2022-11-06T15:30:00.000Z,54.43
2022-11-06T15:45:00.000Z,30.67
2022-11-06T16:00:00.000Z,31.19
2022-11-06T16:15:00.000Z,32.41
2022-11-06T16:30:00.000Z,39.44
2022-11-06T16:45:00.000Z,36.34
2022-11-06T17:00:00.000Z,34.56
2022-11-06T17:15:00.000Z,35.15
2022-11-06T17:30:00.000Z,27.49
2022-11-06T17:45:00.000Z,14.12
2022-11-06T18:00:00.000Z,12.24
2022-11-06T18:15:00.000Z,7.29
2022-11-06T18:30:00.000Z,7.27
2022-11-06T18:45:00.000Z,7.28
2022-11-06T19:00:00.000Z,7.19
2022-11-06T19:15:00.000Z,6.45
2022-11-06T19:30:00.000Z,6.72
2022-11-06T19:45:00.000Z,6.49
2022-11-06T20:00:00.000Z,4.82
2022-11-06T20:15:00.000Z,4.58
2022-11-06T20:30:00.000Z,13.09
2022-11-06T20:45:00.000Z,21.51
2022-11-06T21:00:00.000Z,25.02
2022-11-06T21:15:00.000Z,27.52
2022-11-06T21:30:00.000Z,27.46
2022-11-06T21:45:00.000Z,28.61
2022-11-06T22:00:00.000Z,27.33
2022-11-06T22:15:00.000Z,27.81
2022-11-06T22:30:00.000Z,20.29
2022-11-06T22:45:00.000Z,9.13
2022-11-06T23:00:00.000Z,4.04
2022-11-06T23:15:00.000Z,3.11
2022-11-06T23:30:00.000Z,2.29
2022-11-06T23:45:00.000Z,3.21
